Time;durP1;ratioP1;P1;durP2;ratioP2;P2;SDS_P1;SDS_P2;PMS_P1;PMS_P2;Temp;Humidity;BMP_temperature;BMP_pressure;BME280_temperature;BME280_humidity;BME280_pressure;Samples;Min_cycle;Max_cycle;Signal;HPM_P1;HPM_P2
2023/12/17 00:02:25;;;;;;;20.20;7.70;;;;;;;4.35;79.41;100731.81;105749;1250;109605;-72
2023/12/17 00:04:53;;;;;;;23.40;8.60;;;;;;;4.36;79.57;100715.63;105506;1254;96625;-71
2023/12/17 00:07:20;;;;;;;22.30;8.60;;;;;;;4.38;79.34;100727.17;105389;1251;106923;-70
2023/12/17 00:09:48;;;;;;;19.10;7.20;;;;;;;4.39;79.28;100725.59;105341;1254;97807;-70
2023/12/17 00:12:16;;;;;;;22.20;8.00;;;;;;;4.39;79.29;100731.03;105690;1256;96590;-71
2023/12/17 00:14:45;;;;;;;20.80;8.20;;;;;;;4.38;79.15;100743.67;105724;1250;109933;-71
2023/12/17 00:17:13;;;;;;;20.80;7.50;;;;;;;4.38;79.05;100742.47;105726;1254;96622;-71
2023/12/17 00:19:41;;;;;;;20.70;7.90;;;;;;;4.37;79.19;100750.02;105680;1255;107679;-71
2023/12/17 00:22:09;;;;;;;20.00;7.80;;;;;;;4.37;79.16;100756.89;105676;1251;96686;-71
2023/12/17 00:24:37;;;;;;;21.00;8.20;;;;;;;4.37;78.95;100753.19;105755;1251;96677;-70
2023/12/17 00:27:05;;;;;;;21.80;8.60;;;;;;;4.38;78.96;100748.95;105715;1251;111033;-71
2023/12/17 00:29:33;;;;;;;19.60;8.10;;;;;;;4.39;79.00;100738.23;105759;1254;96658;-70
2023/12/17 00:32:01;;;;;;;24.60;9.80;;;;;;;4.39;79.02;100735.58;105768;1251;107696;-73
2023/12/17 00:34:28;;;;;;;21.00;7.60;;;;;;;4.40;78.83;100734.70;105460;1254;97820;-71
2023/12/17 00:36:57;;;;;;;20.70;8.60;;;;;;;4.40;78.72;100728.73;105583;1255;96598;-70
2023/12/17 00:39:25;;;;;;;22.50;8.40;;;;;;;4.39;78.76;100721.35;105735;1254;109861;-74
2023/12/17 00:41:53;;;;;;;24.60;8.90;;;;;;;4.39;78.93;100718.20;105618;1264;96615;-70
2023/12/17 00:44:21;;;;;;;20.80;7.90;;;;;;;4.40;79.00;100717.31;105689;1254;107160;-71
2023/12/17 00:46:49;;;;;;;19.90;8.10;;;;;;;4.40;78.82;100708.34;105621;1266;96587;-69
2023/12/17 00:49:16;;;;;;;23.20;8.00;;;;;;;4.40;78.79;100705.00;105368;1251;96605;-71
2023/12/17 00:51:44;;;;;;;21.10;7.70;;;;;;;4.41;78.66;100699.20;105522;1254;109925;-70
2023/12/17 00:54:12;;;;;;;18.90;7.50;;;;;;;4.41;78.91;100700.41;105547;1251;96600;-71
2023/12/17 00:56:40;;;;;;;19.50;7.60;;;;;;;4.41;78.72;100696.38;105565;1254;108105;-71
2023/12/17 00:59:08;;;;;;;17.70;7.20;;;;;;;4.41;78.65;100694.79;105626;1255;97540;-69
2023/12/17 01:01:38;;;;;;;19.40;7.30;;;;;;;4.40;78.38;100694.30;105651;1254;96567;-72
2023/12/17 01:04:06;;;;;;;20.50;7.30;;;;;;;4.39;78.59;100693.94;105623;1254;109958;-71
2023/12/17 01:06:34;;;;;;;22.00;8.20;;;;;;;4.39;78.28;100683.43;105612;1250;97955;-70
2023/12/17 01:09:02;;;;;;;17.60;6.80;;;;;;;4.38;78.58;100674.67;105407;1257;107602;-71
2023/12/17 01:11:30;;;;;;;19.20;6.90;;;;;;;4.38;78.25;100676.24;105796;1250;96711;-71
2023/12/17 01:13:58;;;;;;;19.70;7.30;;;;;;;4.37;78.51;100675.55;105752;1264;96516;-70
2023/12/17 01:16:25;;;;;;;18.10;6.80;;;;;;;4.39;78.35;100676.05;105442;1255;110408;-70
2023/12/17 01:18:53;;;;;;;19.50;7.20;;;;;;;4.39;78.47;100678.50;105640;1254;96613;-71
2023/12/17 01:21:22;;;;;;;16.30;6.60;;;;;;;4.39;78.49;100679.38;105656;1254;107334;-72
2023/12/17 01:23:50;;;;;;;20.40;7.30;;;;;;;4.41;78.29;100693.21;105593;1254;97954;-71
2023/12/17 01:26:19;;;;;;;19.20;6.80;;;;;;;4.42;78.52;100691.63;105529;1250;96589;-70
2023/12/17 01:28:48;;;;;;;21.20;7.50;;;;;;;4.42;78.51;100698.64;105367;1257;108995;-74
2023/12/17 01:31:16;;;;;;;18.00;6.60;;;;;;;4.42;78.59;100698.98;105623;1250;97451;-69
2023/12/17 01:33:44;;;;;;;17.70;7.10;;;;;;;4.43;78.48;100694.23;105374;1251;107618;-71
2023/12/17 01:36:12;;;;;;;17.20;6.70;;;;;;;4.44;78.26;100681.73;105600;1256;97273;-69
2023/12/17 01:38:40;;;;;;;18.10;6.50;;;;;;;4.44;78.16;100685.79;105531;1254;96639;-73
2023/12/17 01:41:08;;;;;;;19.20;7.00;;;;;;;4.44;78.39;100696.66;105527;1252;109721;-70
2023/12/17 01:43:36;;;;;;;20.20;7.20;;;;;;;4.44;78.39;100701.92;105672;1250;96514;-71
2023/12/17 01:46:04;;;;;;;20.20;7.10;;;;;;;4.45;78.34;100702.61;105409;1252;107130;-70
2023/12/17 01:48:34;;;;;;;20.20;7.60;;;;;;;4.46;78.11;100704.70;105545;1254;96655;-70
2023/12/17 01:51:03;;;;;;;21.00;6.40;;;;;;;4.46;78.40;100701.72;105532;1250;97932;-69
2023/12/17 01:53:30;;;;;;;16.40;6.30;;;;;;;4.46;78.19;100699.98;105698;1254;110034;-71
2023/12/17 01:55:58;;;;;;;20.30;6.90;;;;;;;4.46;78.13;100700.50;105783;1255;96596;-70
2023/12/17 01:58:27;;;;;;;17.50;6.80;;;;;;;4.46;78.24;100702.41;105695;1266;108266;-69
2023/12/17 02:00:57;;;;;;;19.70;7.50;;;;;;;4.46;78.25;100709.11;105595;1253;96596;-71
2023/12/17 02:03:25;;;;;;;18.30;7.70;;;;;;;4.45;78.23;100701.90;105627;1255;96642;-69
2023/12/17 02:05:53;;;;;;;16.50;7.20;;;;;;;4.45;78.14;100700.69;105652;1254;110921;-70
2023/12/17 02:08:21;;;;;;;20.20;7.90;;;;;;;4.45;78.08;100695.42;105473;1254;96603;-70
2023/12/17 02:10:49;;;;;;;21.20;7.60;;;;;;;4.45;78.04;100684.70;105356;1251;108523;-69
2023/12/17 02:13:17;;;;;;;19.70;8.30;;;;;;;4.45;78.10;100689.27;105613;1254;97951;-72
2023/12/17 02:15:45;;;;;;;21.70;8.30;;;;;;;4.45;78.22;100681.37;105528;1254;96606;-73
2023/12/17 02:18:13;;;;;;;18.20;6.70;;;;;;;4.45;77.87;100667.66;105589;1250;110200;-71
2023/12/17 02:20:43;;;;;;;18.00;7.00;;;;;;;4.45;78.08;100656.77;105648;1256;96593;-70
2023/12/17 02:23:12;;;;;;;19.30;6.80;;;;;;;4.45;77.82;100653.08;105584;1255;107634;-72
2023/12/17 02:25:40;;;;;;;22.40;8.10;;;;;;;4.45;77.68;100651.34;105359;1254;96693;-72
2023/12/17 02:28:08;;;;;;;20.80;7.50;;;;;;;4.44;77.97;100647.67;105566;1256;96625;-73
2023/12/17 02:30:35;;;;;;;22.70;8.80;;;;;;;4.43;77.54;100649.80;105351;1254;108843;-70
2023/12/17 02:33:03;;;;;;;21.50;7.30;;;;;;;4.42;77.72;100650.34;105516;1250;96593;-70
2023/12/17 02:35:31;;;;;;;23.60;8.60;;;;;;;4.41;77.81;100646.49;105669;1254;107502;-72
2023/12/17 02:37:59;;;;;;;21.20;8.50;;;;;;;4.41;77.66;100646.30;105356;1254;96664;-70
2023/12/17 02:40:27;;;;;;;22.70;8.30;;;;;;;4.41;78.00;100630.67;105394;1254;96590;-71
2023/12/17 02:42:55;;;;;;;17.90;7.20;;;;;;;4.42;77.79;100621.70;105595;1255;109905;-70
2023/12/17 02:45:23;;;;;;;17.30;7.10;;;;;;;4.42;77.84;100597.45;105560;1251;96609;-73
2023/12/17 02:47:51;;;;;;;19.80;7.30;;;;;;;4.41;77.72;100602.23;108841;1251;107194;-69
2023/12/17 02:50:19;;;;;;;18.70;7.10;;;;;;;4.40;77.64;100593.98;108885;1250;94609;-69
2023/12/17 02:52:47;;;;;;;19.00;6.90;;;;;;;4.40;77.54;100592.41;108960;1250;94428;-70
2023/12/17 02:55:14;;;;;;;17.90;6.80;;;;;;;4.42;77.64;100608.36;108906;1251;108986;-71
2023/12/17 02:57:43;;;;;;;18.30;7.00;;;;;;;4.44;77.60;100618.16;108911;1250;95541;-70
2023/12/17 03:00:11;;;;;;;18.00;7.00;;;;;;;4.45;77.69;100602.50;108937;1250;107685;-69
2023/12/17 03:02:40;;;;;;;18.00;7.00;;;;;;;4.47;77.44;100589.97;108694;1256;94613;-69
2023/12/17 03:05:08;;;;;;;18.10;6.90;;;;;;;4.48;77.38;100589.42;108954;1250;94291;-69
2023/12/17 03:07:36;;;;;;;18.80;7.40;;;;;;;4.51;77.54;100576.89;108947;1250;109966;-69
2023/12/17 03:10:04;;;;;;;21.40;6.80;;;;;;;4.51;77.31;100570.90;108778;1251;95574;-69
2023/12/17 03:12:32;;;;;;;21.30;7.80;;;;;;;4.52;77.32;100565.77;108934;1250;106335;-69
2023/12/17 03:15:00;;;;;;;17.50;6.80;;;;;;;4.53;77.25;100573.66;108864;1251;94242;-69
2023/12/17 03:17:28;;;;;;;19.90;7.40;;;;;;;4.55;77.19;100569.41;108938;1250;94201;-69
2023/12/17 03:19:56;;;;;;;18.20;6.90;;;;;;;4.56;77.33;100561.83;108998;1250;109948;-69
2023/12/17 03:22:24;;;;;;;17.40;6.90;;;;;;;4.57;77.05;100554.96;108943;1250;97045;-69
2023/12/17 03:24:52;;;;;;;15.30;6.50;;;;;;;4.58;77.30;100554.22;108964;1251;107652;-70
2023/12/17 03:27:20;;;;;;;18.00;7.00;;;;;;;4.59;77.31;100549.63;108906;1250;94555;-69
2023/12/17 03:29:48;;;;;;;19.30;6.50;;;;;;;4.60;77.31;100553.47;108987;1250;94228;-70
2023/12/17 03:32:16;;;;;;;19.00;6.60;;;;;;;4.62;77.23;100555.00;108840;1250;109881;-69
2023/12/17 03:34:44;;;;;;;16.70;6.20;;;;;;;4.65;76.88;100570.23;108938;1251;95513;-69
2023/12/17 03:37:12;;;;;;;21.60;6.80;;;;;;;4.65;76.74;100579.56;108866;1250;107402;-69
2023/12/17 03:39:40;;;;;;;16.60;6.50;;;;;;;4.66;76.63;100584.27;108861;1250;95051;-69
2023/12/17 03:42:07;;;;;;;17.80;6.20;;;;;;;4.66;76.95;100586.91;108952;1250;94523;-69
2023/12/17 03:44:35;;;;;;;19.00;5.50;;;;;;;4.67;77.14;100582.31;108858;1251;109824;-69
2023/12/17 03:47:03;;;;;;;15.90;6.00;;;;;;;4.70;77.02;100573.45;108937;1250;95582;-70
2023/12/17 03:49:31;;;;;;;16.70;6.20;;;;;;;4.71;76.93;100564.10;108888;1251;107921;-70
2023/12/17 03:52:02;;;;;;;16.00;6.20;;;;;;;4.72;77.00;100562.48;108885;1251;94329;-69
2023/12/17 03:54:30;;;;;;;19.00;5.80;;;;;;;4.74;77.09;100551.20;108906;1251;94265;-69
2023/12/17 03:56:58;;;;;;;24.50;6.50;;;;;;;4.76;77.18;100547.48;108873;1250;109302;-69
2023/12/17 03:59:26;;;;;;;17.00;6.40;;;;;;;4.77;77.06;100534.95;108928;1250;95433;-69
2023/12/17 04:01:54;;;;;;;18.50;6.80;;;;;;;4.79;77.10;100541.25;108874;1250;105954;-69
2023/12/17 04:04:21;;;;;;;12.80;5.20;;;;;;;4.81;77.21;100550.69;108968;1250;94502;-69
2023/12/17 04:06:49;;;;;;;17.00;6.00;;;;;;;4.82;77.11;100540.11;108896;1250;95741;-68
2023/12/17 04:09:19;;;;;;;17.00;6.30;;;;;;;4.84;76.96;100541.83;108933;1251;110444;-70
2023/12/17 04:11:47;;;;;;;17.90;6.00;;;;;;;4.85;77.21;100542.51;108828;1251;95637;-69
2023/12/17 04:14:14;;;;;;;15.30;6.30;;;;;;;4.86;77.06;100542.66;108881;1251;107170;-69
2023/12/17 04:16:43;;;;;;;16.50;6.10;;;;;;;4.87;76.94;100534.73;108932;1251;94173;-69
2023/12/17 04:19:11;;;;;;;16.60;6.60;;;;;;;4.86;76.96;100537.02;108847;1251;94588;-69
2023/12/17 04:21:39;;;;;;;17.80;6.40;;;;;;;4.88;76.82;100540.15;108874;1251;109592;-69
2023/12/17 04:24:07;;;;;;;16.20;6.00;;;;;;;4.89;77.03;100544.66;108964;1250;95786;-70
2023/12/17 04:26:36;;;;;;;15.10;6.00;;;;;;;4.89;76.82;100545.20;108786;1251;106730;-69
2023/12/17 04:29:03;;;;;;;16.70;6.40;;;;;;;4.90;76.77;100548.68;108959;1250;94678;-70
2023/12/17 04:31:32;;;;;;;19.60;6.40;;;;;;;4.91;77.12;100544.97;108987;1250;94381;-69
2023/12/17 04:33:59;;;;;;;16.00;6.00;;;;;;;4.92;76.97;100549.52;108979;1250;109844;-69
2023/12/17 04:36:27;;;;;;;17.80;6.10;;;;;;;4.93;76.85;100548.98;109029;1250;95571;-69
2023/12/17 04:38:55;;;;;;;15.50;6.20;;;;;;;4.94;76.79;100544.55;108864;1251;107648;-68
2023/12/17 04:41:24;;;;;;;15.40;5.40;;;;;;;4.95;76.84;100537.66;108977;1250;94244;-71
2023/12/17 04:43:52;;;;;;;15.90;5.50;;;;;;;4.96;76.89;100535.36;108893;1251;94550;-69
2023/12/17 04:46:20;;;;;;;18.80;5.80;;;;;;;4.96;76.79;100538.34;108948;1250;109989;-69
2023/12/17 04:48:48;;;;;;;14.10;5.60;;;;;;;4.97;76.51;100542.89;108944;1251;96091;-69
2023/12/17 04:51:16;;;;;;;16.70;5.60;;;;;;;4.99;76.67;100551.81;108881;1251;107617;-69
2023/12/17 04:53:44;;;;;;;17.20;6.00;;;;;;;4.99;76.68;100550.92;108949;1250;94567;-71
2023/12/17 04:56:13;;;;;;;15.80;5.80;;;;;;;5.00;76.88;100551.80;108894;1251;94438;-69
2023/12/17 04:58:40;;;;;;;15.10;5.30;;;;;;;5.01;76.74;100553.88;108809;1251;109956;-69
2023/12/17 05:01:08;;;;;;;15.70;5.90;;;;;;;5.01;76.35;100553.69;108961;1251;95015;-70
2023/12/17 05:03:36;;;;;;;18.10;6.10;;;;;;;5.02;76.75;100563.52;108887;1251;107764;-69
2023/12/17 05:06:05;;;;;;;16.30;6.50;;;;;;;5.02;76.73;100557.90;108897;1251;94183;-69
2023/12/17 05:08:33;;;;;;;23.60;8.60;;;;;;;5.02;76.67;100553.85;108854;1251;94467;-72
2023/12/17 05:11:01;;;;;;;25.10;9.90;;;;;;;5.02;76.46;100556.30;108922;1250;109659;-68
2023/12/17 05:13:29;;;;;;;32.00;13.90;;;;;;;5.01;76.33;100547.71;108876;1251;95605;-69
2023/12/17 05:15:57;;;;;;;33.40;11.50;;;;;;;5.00;76.36;100537.90;108880;1251;107702;-70
2023/12/17 05:18:25;;;;;;;42.10;17.70;;;;;;;4.99;76.52;100542.67;108895;1251;94285;-69
2023/12/17 05:20:53;;;;;;;47.40;18.40;;;;;;;4.97;76.39;100543.60;108893;1250;94433;-69
2023/12/17 05:23:21;;;;;;;47.10;18.40;;;;;;;4.94;76.12;100551.23;108850;1251;109605;-70
2023/12/17 05:25:49;;;;;;;38.70;14.90;;;;;;;4.87;76.19;100547.38;108928;1250;96762;-71
2023/12/17 05:28:17;;;;;;;35.00;15.20;;;;;;;4.82;75.83;100540.11;108938;1251;107223;-69
2023/12/17 05:30:46;;;;;;;31.00;13.10;;;;;;;4.72;75.72;100545.08;108899;1251;94279;-68
2023/12/17 05:33:14;;;;;;;25.50;10.20;;;;;;;4.66;75.61;100553.88;108933;1251;94336;-69
2023/12/17 05:35:43;;;;;;;24.50;10.90;;;;;;;4.62;76.05;100557.30;108917;1251;109948;-70
2023/12/17 05:38:11;;;;;;;23.70;10.10;;;;;;;4.58;75.86;100568.63;108873;1254;95785;-69
2023/12/17 05:40:39;;;;;;;21.70;10.10;;;;;;;4.49;75.60;100569.36;108899;1251;107619;-70
2023/12/17 05:43:08;;;;;;;21.90;10.50;;;;;;;4.43;75.56;100567.41;108833;1251;94231;-69
2023/12/17 05:45:36;;;;;;;22.50;9.20;;;;;;;4.36;75.38;100562.48;108892;1254;94313;-69
2023/12/17 05:48:17;;;;;;;23.30;10.10;;;;;;;4.28;75.66;100564.40;108876;1251;109542;-69
2023/12/17 05:50:46;;;;;;;23.10;10.40;;;;;;;4.24;75.41;100565.20;108955;1250;95155;-69
2023/12/17 05:53:14;;;;;;;24.10;9.90;;;;;;;4.17;75.82;100566.59;108870;1251;106822;-69
2023/12/17 05:55:43;;;;;;;22.20;10.00;;;;;;;4.12;75.90;100572.13;108915;1251;94227;-69
2023/12/17 05:58:10;;;;;;;23.40;10.40;;;;;;;4.02;75.42;100565.67;108918;1250;94220;-71
2023/12/17 06:00:38;;;;;;;25.70;11.10;;;;;;;3.94;75.34;100570.75;108889;1251;110567;-71
2023/12/17 06:03:07;;;;;;;24.40;11.70;;;;;;;3.87;75.55;100573.17;108835;1250;95518;-69
2023/12/17 06:05:35;;;;;;;26.60;12.10;;;;;;;3.83;75.66;100572.76;108860;1251;107220;-73
2023/12/17 06:08:03;;;;;;;25.00;11.70;;;;;;;3.80;75.77;100571.58;108803;1250;94397;-70
2023/12/17 06:10:31;;;;;;;21.20;9.70;;;;;;;3.77;75.74;100575.66;108900;1250;94496;-70
2023/12/17 06:12:59;;;;;;;24.90;11.70;;;;;;;3.73;75.66;100580.31;108900;1253;109967;-71
2023/12/17 06:15:27;;;;;;;25.60;10.70;;;;;;;3.68;75.72;100580.95;108839;1250;95244;-71
2023/12/17 06:17:55;;;;;;;24.70;10.70;;;;;;;3.61;75.26;100585.28;108902;1250;106864;-71
2023/12/17 06:20:25;;;;;;;22.10;10.30;;;;;;;3.55;75.63;100587.86;108855;1251;95416;-70
2023/12/17 06:22:54;;;;;;;23.40;10.30;;;;;;;3.54;75.61;100581.39;108911;1251;94300;-70
2023/12/17 06:25:22;;;;;;;26.10;10.70;;;;;;;3.51;75.62;100579.86;108890;1250;109915;-69
2023/12/17 06:27:52;;;;;;;29.20;13.80;;;;;;;3.48;75.49;100589.39;108813;1251;95257;-70
2023/12/17 06:30:20;;;;;;;28.70;12.90;;;;;;;3.46;75.43;100597.86;108911;1251;107623;-69
2023/12/17 06:32:48;;;;;;;26.30;13.00;;;;;;;3.44;75.57;100602.28;108890;1253;94228;-74
2023/12/17 06:35:16;;;;;;;28.30;12.60;;;;;;;3.43;75.68;100612.81;108888;1252;94343;-73
2023/12/17 06:37:51;;;;;;;30.10;13.60;;;;;;;3.43;75.51;100611.74;108892;1251;109897;-74
2023/12/17 06:40:22;;;;;;;28.90;13.00;;;;;;;3.43;75.62;100617.55;108968;1250;95540;-75
2023/12/17 06:42:50;;;;;;;27.60;13.00;;;;;;;3.42;75.43;100619.48;108853;1251;106593;-69
2023/12/17 06:45:18;;;;;;;25.50;11.20;;;;;;;3.44;75.54;100626.66;108878;1250;95014;-72
2023/12/17 06:47:46;;;;;;;27.60;12.90;;;;;;;3.45;75.33;100624.52;108833;1251;94479;-70
2023/12/17 06:50:14;;;;;;;25.10;11.60;;;;;;;3.42;75.52;100622.65;108897;1250;109197;-71
2023/12/17 06:52:42;;;;;;;23.60;11.00;;;;;;;3.45;75.60;100617.70;108858;1251;94478;-70
2023/12/17 06:55:10;;;;;;;22.50;11.00;;;;;;;3.48;75.60;100619.39;108890;1250;105869;-70
2023/12/17 06:57:39;;;;;;;27.30;11.20;;;;;;;3.50;75.54;100613.91;108922;1251;95190;-70
2023/12/17 07:00:07;;;;;;;25.30;11.20;;;;;;;3.51;75.58;100619.52;108863;1251;94292;-70
2023/12/17 07:02:41;;;;;;;28.50;12.20;;;;;;;3.54;75.43;100620.68;108861;1254;109399;-76
2023/12/17 07:05:12;;;;;;;;;;;;;;;3.59;75.66;100614.45;108856;1252;95601;-76
2023/12/17 07:07:42;;;;;;;25.30;12.10;;;;;;;3.65;75.66;100620.30;108862;1253;106926;-79
2023/12/17 07:10:44;;;;;;;24.60;11.80;;;;;;;3.71;75.67;100631.41;108811;1253;95427;-81
2023/12/17 07:13:27;;;;;;;26.30;12.60;;;;;;;3.78;75.66;100647.43;108899;1253;94227;-80
2023/12/17 07:16:32;;;;;;;25.00;10.60;;;;;;;3.82;75.45;100643.84;108641;1253;109611;-82
2023/12/17 07:19:52;;;;;;;26.00;12.30;;;;;;;3.87;75.67;100633.91;108740;1254;95334;-80
2023/12/17 07:22:31;;;;;;;26.60;13.30;;;;;;;3.91;75.41;100630.14;108533;1254;109067;-80
2023/12/17 07:25:19;;;;;;;34.10;16.30;;;;;;;3.92;75.27;100625.91;108630;1253;94239;-80
2023/12/17 07:28:13;;;;;;;34.40;17.50;;;;;;;3.88;74.95;100627.04;108725;1254;94280;-78
2023/12/17 07:30:58;;;;;;;34.90;17.00;;;;;;;3.83;75.12;100628.55;108731;1254;110335;-78
2023/12/17 07:33:32;;;;;;;31.60;14.90;;;;;;;3.83;75.03;100628.20;108685;1252;96455;-80
2023/12/17 07:36:03;;;;;;;29.00;14.10;;;;;;;3.82;74.97;100627.88;108601;1254;107544;-80
2023/12/17 07:38:51;;;;;;;28.00;14.10;;;;;;;3.80;75.05;100631.42;108654;1251;94335;-83
2023/12/17 07:41:51;;;;;;;27.30;14.40;;;;;;;3.80;75.17;100644.41;108641;1251;94319;-80
2023/12/17 07:44:30;;;;;;;30.80;16.30;;;;;;;3.84;75.00;100648.89;108610;1251;110517;-79
2023/12/17 07:47:10;;;;;;;36.20;18.10;;;;;;;3.85;74.91;100643.60;108720;1253;94566;-81
2023/12/17 07:49:52;;;;;;;31.90;16.70;;;;;;;3.85;75.06;100646.59;108613;1251;107717;-79
2023/12/17 07:52:38;;;;;;;29.40;15.40;;;;;;;3.85;75.04;100649.92;108576;1252;94240;-79
2023/12/17 07:55:11;;;;;;;34.80;16.00;;;;;;;3.88;75.10;100647.92;108833;1252;94312;-79
2023/12/17 07:57:44;;;;;;;29.60;13.40;;;;;;;3.90;75.08;100653.85;108676;1251;110768;-80
2023/12/17 08:00:23;;;;;;;27.60;12.80;;;;;;;3.93;75.26;100660.63;108657;1252;94946;-79
2023/12/17 08:02:53;;;;;;;27.80;13.90;;;;;;;3.97;75.40;100661.44;108706;1253;107697;-79
2023/12/17 08:05:24;;;;;;;27.10;13.80;;;;;;;4.00;75.11;100657.70;108573;1252;94300;-81
2023/12/17 08:07:55;;;;;;;28.80;13.10;;;;;;;4.03;75.37;100660.63;108831;1254;94620;-78
2023/12/17 08:10:27;;;;;;;26.80;13.10;;;;;;;4.06;75.14;100667.94;108648;1254;109573;-80
2023/12/17 08:12:56;;;;;;;27.40;13.10;;;;;;;4.10;75.29;100670.14;108669;1251;95934;-84
2023/12/17 08:15:29;;;;;;;27.20;13.50;;;;;;;4.13;75.31;100670.77;108729;1254;107567;-80
2023/12/17 08:18:03;;;;;;;24.90;12.80;;;;;;;4.20;75.29;100671.88;108776;1252;94644;-78
2023/12/17 08:20:33;;;;;;;26.70;13.10;;;;;;;4.25;75.44;100669.48;108770;1253;94491;-81
2023/12/17 08:24:34;;;;;;;29.20;14.30;;;;;;;4.30;75.30;100672.37;108541;1252;108629;-83
2023/12/17 08:28:05;;;;;;;32.60;16.20;;;;;;;4.34;75.01;100670.17;108175;1257;95301;-84
2023/12/17 08:30:59;;;;;;;34.10;16.00;;;;;;;4.39;75.18;100672.88;108649;1253;106415;-78
2023/12/17 08:33:36;;;;;;;35.50;18.60;;;;;;;4.40;74.96;100670.94;108897;1255;94236;-77
2023/12/17 08:36:08;;;;;;;38.10;19.10;;;;;;;4.39;74.87;100678.16;108913;1254;94244;-76
2023/12/17 08:38:37;;;;;;;36.00;18.90;;;;;;;4.39;75.09;100677.98;108899;1253;110299;-76
2023/12/17 08:41:05;;;;;;;34.80;18.50;;;;;;;4.42;74.82;100674.77;108874;1252;95418;-75
2023/12/17 08:43:33;;;;;;;33.20;17.30;;;;;;;4.41;75.15;100669.50;108779;1253;107693;-75
2023/12/17 08:46:04;;;;;;;34.30;17.90;;;;;;;4.44;75.23;100667.69;108853;1251;94284;-76
2023/12/17 08:48:32;;;;;;;40.20;21.80;;;;;;;4.43;74.77;100674.38;108896;1251;95518;-77
2023/12/17 08:51:00;;;;;;;32.80;17.00;;;;;;;4.40;74.59;100673.04;108875;1253;109804;-76
2023/12/17 08:53:28;;;;;;;32.80;16.80;;;;;;;4.39;74.86;100674.81;108890;1254;95287;-74
2023/12/17 08:55:56;;;;;;;31.90;16.80;;;;;;;4.42;74.86;100682.65;108904;1252;107193;-75
2023/12/17 08:58:24;;;;;;;33.90;17.70;;;;;;;4.46;75.10;100692.95;108833;1252;94515;-78
2023/12/17 09:00:52;;;;;;;29.20;15.80;;;;;;;4.49;75.20;100692.17;108923;1251;94567;-77
2023/12/17 09:03:19;;;;;;;32.40;17.70;;;;;;;4.52;75.02;100686.32;108930;1251;110218;-77
2023/12/17 09:05:47;;;;;;;38.40;20.60;;;;;;;4.55;75.10;100692.03;108920;1251;95467;-77
2023/12/17 09:08:17;;;;;;;43.40;21.80;;;;;;;4.58;74.82;100695.84;108929;1250;107753;-78
2023/12/17 09:10:48;;;;;;;46.40;23.60;;;;;;;4.57;74.86;100696.39;108914;1253;94222;-78
2023/12/17 09:13:16;;;;;;;45.30;21.70;;;;;;;4.57;75.04;100697.27;108910;1251;94572;-78
2023/12/17 09:15:44;;;;;;;43.10;22.50;;;;;;;4.56;74.70;100693.77;108913;1251;109958;-78
2023/12/17 09:18:12;;;;;;;42.00;21.50;;;;;;;4.53;74.77;100690.85;108936;1251;95533;-78
2023/12/17 09:20:40;;;;;;;37.90;19.60;;;;;;;4.56;75.01;100693.77;108994;1250;107065;-78
2023/12/17 09:23:08;;;;;;;36.60;19.80;;;;;;;4.59;74.82;100700.02;108965;1251;94196;-79
2023/12/17 09:25:36;;;;;;;38.40;20.60;;;;;;;4.58;75.14;100699.02;108969;1252;94186;-78
2023/12/17 09:28:04;;;;;;;35.60;19.80;;;;;;;4.59;75.17;100701.80;108982;1251;109932;-77
2023/12/17 09:30:32;;;;;;;35.40;19.50;;;;;;;4.61;75.03;100706.15;108944;1251;94334;-79
2023/12/17 09:33:08;;;;;;;31.40;16.70;;;;;;;4.62;75.11;100706.98;108899;1251;107076;-75
2023/12/17 09:35:37;;;;;;;32.70;17.00;;;;;;;4.65;75.09;100719.94;108945;1251;94222;-75
2023/12/17 09:38:05;;;;;;;30.80;16.30;;;;;;;4.68;74.96;100724.09;108962;1250;94502;-74
2023/12/17 09:40:39;;;;;;;30.90;16.20;;;;;;;4.70;75.20;100725.61;108910;1250;110125;-76
2023/12/17 09:43:12;;;;;;;33.80;17.30;;;;;;;4.73;75.10;100724.15;108902;1251;94342;-84
2023/12/17 09:45:44;;;;;;;32.80;17.20;;;;;;;4.74;75.09;100719.55;108779;1251;107699;-76
2023/12/17 09:48:12;;;;;;;29.70;16.10;;;;;;;4.75;74.89;100715.84;108983;1251;94190;-83
2023/12/17 09:50:40;;;;;;;33.80;17.70;;;;;;;4.78;74.94;100717.39;108927;1251;94545;-78
2023/12/17 09:53:08;;;;;;;37.10;20.30;;;;;;;4.79;75.01;100720.33;108975;1250;108560;-74
2023/12/17 09:55:37;;;;;;;34.50;18.30;;;;;;;4.81;75.11;100718.20;108835;1251;95567;-77
2023/12/17 09:58:06;;;;;;;34.30;18.30;;;;;;;4.83;74.92;100712.70;108821;1254;106934;-73
2023/12/17 10:00:34;;;;;;;35.20;19.00;;;;;;;4.83;74.89;100709.71;108897;1250;94171;-73
2023/12/17 10:03:04;;;;;;;33.50;17.90;;;;;;;4.84;75.12;100710.40;108917;1251;94871;-76
2023/12/17 10:05:33;;;;;;;34.00;18.30;;;;;;;4.86;75.01;100707.71;108950;1251;110515;-75
2023/12/17 10:08:32;;;;;;;35.60;18.50;;;;;;;4.86;74.91;100705.41;108945;1252;95913;-80
2023/12/17 10:11:14;;;;;;;35.30;19.70;;;;;;;4.88;75.17;100699.91;108746;1252;107722;-75
2023/12/17 10:13:43;;;;;;;37.60;20.00;;;;;;;4.91;74.95;100696.15;108967;1254;94402;-78
2023/12/17 10:16:11;;;;;;;40.30;20.40;;;;;;;4.90;74.86;100692.14;108922;1251;94535;-75
2023/12/17 10:18:39;;;;;;;35.80;18.10;;;;;;;4.87;74.73;100690.11;108866;1256;109958;-76
2023/12/17 10:21:07;;;;;;;34.30;17.60;;;;;;;4.87;74.84;100690.29;108846;1251;95098;-74
2023/12/17 10:23:52;;;;;;;38.70;19.40;;;;;;;4.86;74.65;100689.06;108864;1251;106817;-79
2023/12/17 10:26:46;;;;;;;37.90;20.20;;;;;;;4.87;74.89;100688.52;108811;1254;94306;-77
2023/12/17 10:29:21;;;;;;;40.50;22.40;;;;;;;4.88;74.73;100682.00;108678;1259;94256;-78
2023/12/17 10:32:07;;;;;;;44.00;24.10;;;;;;;4.89;74.89;100684.95;108913;1251;109490;-74
2023/12/17 10:34:36;;;;;;;46.80;24.70;;;;;;;4.91;75.11;100679.62;108855;1251;95743;-74
2023/12/17 10:37:06;;;;;;;39.90;22.80;;;;;;;4.94;74.96;100681.69;108889;1251;107638;-74
2023/12/17 10:39:38;;;;;;;42.10;21.80;;;;;;;4.94;74.83;100683.44;108819;1251;94656;-75
2023/12/17 10:42:08;;;;;;;40.70;21.60;;;;;;;4.94;74.89;100682.73;108815;1253;94577;-75
2023/12/17 10:44:55;;;;;;;40.50;22.20;;;;;;;4.95;74.45;100685.36;108871;1253;109649;-75
2023/12/17 10:47:25;;;;;;;34.10;17.80;;;;;;;4.94;74.68;100693.98;108803;1253;95665;-74
2023/12/17 10:49:55;;;;;;;34.30;17.10;;;;;;;4.95;74.44;100692.02;108788;1253;108342;-73
2023/12/17 10:52:23;;;;;;;37.60;20.40;;;;;;;4.95;74.70;100686.23;108894;1251;94320;-73
2023/12/17 10:54:53;;;;;;;35.80;19.00;;;;;;;4.96;74.68;100683.58;108854;1256;94394;-73
2023/12/17 10:57:26;;;;;;;34.70;19.00;;;;;;;4.98;74.78;100687.39;108888;1254;109923;-75
2023/12/17 10:59:58;;;;;;;31.30;17.50;;;;;;;5.02;74.80;100690.30;108758;1251;94913;-73
2023/12/17 11:03:39;;;;;;;33.40;18.50;;;;;;;5.10;74.94;100684.48;102513;1289;636733;-73
2023/12/17 11:06:07;;;;;;;40.80;21.20;;;;;;;5.10;74.83;100675.85;104376;1269;94303;-75
2023/12/17 11:08:37;;;;;;;36.60;21.50;;;;;;;5.13;74.62;100668.57;104526;1272;94669;-78
2023/12/17 11:11:06;;;;;;;37.60;20.10;;;;;;;5.13;74.89;100663.47;105163;1260;107675;-74
2023/12/17 11:13:35;;;;;;;38.00;21.20;;;;;;;5.14;74.83;100663.63;105151;1270;94512;-72
2023/12/17 11:16:24;;;;;;;36.50;19.50;;;;;;;5.14;74.90;100664.49;104957;1270;153579;-73
2023/12/17 11:18:53;;;;;;;36.30;20.90;;;;;;;5.15;74.90;100655.68;105334;1260;94405;-73
2023/12/17 11:21:22;;;;;;;39.00;20.80;;;;;;;5.14;74.85;100654.30;105121;1258;94331;-76
2023/12/17 11:23:53;;;;;;;43.00;24.80;;;;;;;5.14;74.82;100656.05;105300;1260;109601;-75
2023/12/17 11:26:21;;;;;;;41.90;24.10;;;;;;;5.16;74.94;100661.45;105036;1258;95469;-74
2023/12/17 11:28:49;;;;;;;45.00;23.10;;;;;;;5.16;75.00;100665.31;105217;1258;105726;-74